Airfield :
LOGIN :

Register | Disclaimer

   EN    FR    IT 

 










Legend :    VFR   Marginal VFR   IFR   Intensive IFR   Very Intensive IFR
Visi :
Ceiling :
>= 8 km
>= 3000ft
5 to 8 km
1000 to 3000 ft
1500m to 5 km
500 to 1000 ft
800 to 1500m
200 to 500 ft
< 800m
< 200 ft
Symbols :   Thunderstorms  Fog  Heavy snow  Heavy precipitations  Wind > 20 kt
SIGMETs :     Misc.  Thunderstorms  Icing  Turbulence  Mountain Waves  Volcanic Ashes






- Airport Elevation : 10 ft
- IATA code : MOL


ENML - Molde

CURRENT METAR :
  • 240520Z 26006KT 190V310 9999 -SHSN FEW014 SCT023 BKN030 01/M01 Q1002

EXPIRED METARs :
  • 240450Z 27012KT 9999 8000E -RASN FEW014 SCT023 BKN030 01/M01 Q1003
  • 240420Z AUTO 23017KT 9999NDV DZ SCT033/// OVC043/// 02/M02 Q1002
  • 240350Z AUTO 23014KT 9999NDV FEW024/// BKN046/// OVC060/// 02/M02 Q1002
  • 240320Z AUTO 22011KT 9999NDV FEW025/// SCT034/// BKN062/// 01/M02 Q1003
  • 240250Z AUTO 28007KT 9999NDV FEW028/// SCT050/// 01/M02 Q1003

TAF TAF ENML
Valid from the 24 at 06:00 until the 24 at 15:00 UTC


240500Z 2406/2415 27008KT 9999 -SHSNRA FEW015TCU SCT030
TEMPO 2406/2412 25015G25KT 1200 SHSN BKN012CB



MET'MAP, your aeronautical weather chart ! - Copyright ORBIFLY December 2007 - Disclaimer

ORBIFLY MET'MAP TEAM :

Programming & Development : Alexandra Zaïnal
Concept & original design : Baudouin d'Aumeries
Assistance for programming : Marc-Olivier Méhu
Technical & hardware support : Manuel Goepfert

Contact : metmap@orbifly.com




SOURCES & CREDITS :

   NOAA